createdAt,value
2018-11-10T00:01:06.594Z,17.40
2018-11-10T00:03:32.412Z,17.50
2018-11-10T00:05:58.239Z,17.40
2018-11-10T00:08:24.104Z,17.40
2018-11-10T00:10:50.286Z,17.40
2018-11-10T00:13:16.512Z,17.40
2018-11-10T00:15:42.328Z,17.40
2018-11-10T00:18:08.149Z,17.40
2018-11-10T00:20:33.963Z,17.30
2018-11-10T00:22:59.785Z,17.40
2018-11-10T00:25:25.590Z,17.30
2018-11-10T00:27:51.435Z,17.40
2018-11-10T00:30:17.648Z,17.40
2018-11-10T00:32:43.455Z,17.30
2018-11-10T00:35:09.283Z,17.40
2018-11-10T00:37:35.534Z,17.30
2018-11-10T00:40:01.348Z,17.30
2018-11-10T00:42:27.547Z,17.40
2018-11-10T00:44:53.369Z,17.40
2018-11-10T00:47:19.192Z,17.40
2018-11-10T00:49:45.007Z,17.40
2018-11-10T00:52:10.825Z,17.40
2018-11-10T00:54:36.634Z,17.40
2018-11-10T00:57:02.464Z,17.40
2018-11-10T00:59:28.275Z,17.40
2018-11-10T01:01:54.098Z,17.40
2018-11-10T01:04:19.923Z,17.40
2018-11-10T01:06:45.717Z,17.40
2018-11-10T01:09:11.543Z,17.40
2018-11-10T01:11:37.390Z,17.40
2018-11-10T01:14:03.591Z,17.40
2018-11-10T01:16:29.416Z,17.30
2018-11-10T01:18:55.226Z,17.40
2018-11-10T01:21:21.044Z,17.40
2018-11-10T01:23:46.858Z,17.40
2018-11-10T01:26:12.691Z,17.40
2018-11-10T01:28:38.509Z,17.40
2018-11-10T01:31:04.320Z,17.40
2018-11-10T01:33:30.142Z,17.40
2018-11-10T01:35:55.956Z,17.30
2018-11-10T01:38:21.767Z,17.30
2018-11-10T01:40:47.587Z,17.30
2018-11-10T01:43:13.399Z,17.40
2018-11-10T01:45:39.224Z,17.40
2018-11-10T01:48:05.132Z,17.40
2018-11-10T01:50:31.077Z,17.30
2018-11-10T01:52:57.090Z,17.40
2018-11-10T01:55:22.915Z,17.40
2018-11-10T01:57:48.723Z,17.40
2018-11-10T02:00:14.547Z,17.40
2018-11-10T02:02:40.361Z,17.40
2018-11-10T02:05:06.186Z,17.40
2018-11-10T02:07:31.993Z,17.40
2018-11-10T02:09:57.818Z,17.40
2018-11-10T02:12:23.623Z,17.40
2018-11-10T02:14:49.447Z,17.40
2018-11-10T02:17:15.266Z,17.40
2018-11-10T02:19:41.090Z,17.40
2018-11-10T02:22:06.892Z,17.40
2018-11-10T02:24:32.710Z,17.50
2018-11-10T02:26:58.538Z,17.40
2018-11-10T02:29:24.363Z,17.40
2018-11-10T02:31:50.179Z,17.40
2018-11-10T02:34:15.993Z,17.40
2018-11-10T02:36:41.817Z,17.40
2018-11-10T02:39:07.628Z,17.40
2018-11-10T02:41:33.456Z,17.30
2018-11-10T02:43:59.262Z,17.30
2018-11-10T02:46:25.079Z,17.40
2018-11-10T02:48:50.916Z,17.30
2018-11-10T02:51:16.749Z,17.40
2018-11-10T02:53:42.955Z,17.40
2018-11-10T02:56:08.772Z,17.40
2018-11-10T02:58:34.572Z,17.40
2018-11-10T03:01:00.399Z,17.40
2018-11-10T03:03:26.235Z,17.40
2018-11-10T03:05:52.442Z,17.40
2018-11-10T03:08:18.267Z,17.40
2018-11-10T03:10:44.203Z,17.40
2018-11-10T03:13:10.316Z,17.40
2018-11-10T03:15:36.131Z,17.40
2018-11-10T03:18:01.951Z,17.40
2018-11-10T03:20:27.755Z,17.40
2018-11-10T03:22:53.579Z,17.40
2018-11-10T03:25:19.395Z,17.40
2018-11-10T03:27:45.223Z,17.40
2018-11-10T03:30:11.123Z,17.40
2018-11-10T03:32:37.270Z,17.40
2018-11-10T03:35:03.084Z,17.40
2018-11-10T03:37:28.904Z,17.30
2018-11-10T03:39:54.722Z,17.30
2018-11-10T03:42:20.946Z,17.30
2018-11-10T03:44:46.767Z,17.20
2018-11-10T03:47:12.585Z,17.30
2018-11-10T03:49:38.411Z,17.20
2018-11-10T03:52:04.626Z,17.20
2018-11-10T03:54:30.434Z,17.20
2018-11-10T03:56:56.267Z,17.20
2018-11-10T03:59:22.086Z,17.20
2018-11-10T04:01:47.887Z,17.20
2018-11-10T04:04:13.711Z,17.20
2018-11-10T04:06:39.536Z,17.10
2018-11-10T04:09:05.764Z,17.10
2018-11-10T04:11:31.574Z,17.10
2018-11-10T04:13:57.387Z,17.10
2018-11-10T04:16:23.206Z,17.10
2018-11-10T04:18:49.041Z,17.10
2018-11-10T04:21:14.851Z,17.10
2018-11-10T04:23:41.083Z,17.10
2018-11-10T04:26:06.891Z,17.10
2018-11-10T04:28:32.703Z,17.10
2018-11-10T04:30:58.551Z,17.10
2018-11-10T04:33:24.763Z,17.10
2018-11-10T04:35:50.566Z,17.10
2018-11-10T04:38:16.387Z,17.10
2018-11-10T04:40:42.204Z,17.10
2018-11-10T04:43:08.027Z,17.10
2018-11-10T04:45:33.853Z,17.10
2018-11-10T04:48:00.487Z,17.10
2018-11-10T04:50:26.319Z,17.10
2018-11-10T04:52:52.536Z,17.10
2018-11-10T04:55:18.363Z,17.10
2018-11-10T04:57:44.633Z,17.10
2018-11-10T05:00:10.798Z,17.10
2018-11-10T05:02:36.625Z,17.10
2018-11-10T05:05:02.860Z,17.10
2018-11-10T05:07:28.668Z,17.10
2018-11-10T05:09:54.900Z,17.10
2018-11-10T05:12:20.706Z,17.10
2018-11-10T05:14:46.933Z,17.10
2018-11-10T05:17:12.763Z,17.10
2018-11-10T05:19:38.572Z,17.10
2018-11-10T05:22:04.399Z,17.10
2018-11-10T05:24:30.223Z,17.10
2018-11-10T05:26:56.427Z,17.10
2018-11-10T05:29:22.262Z,17.10
2018-11-10T05:31:48.485Z,17.10
2018-11-10T05:34:14.315Z,17.00
2018-11-10T05:36:40.114Z,17.10
2018-11-10T05:39:05.939Z,17.10
2018-11-10T05:41:31.765Z,17.10
2018-11-10T05:43:57.575Z,17.10
2018-11-10T05:46:23.392Z,17.10
2018-11-10T05:48:49.210Z,17.10
2018-11-10T05:51:17.489Z,17.10
2018-11-10T05:53:43.304Z,17.10
2018-11-10T05:56:09.121Z,17.10
2018-11-10T05:58:34.939Z,17.10
2018-11-10T06:01:00.750Z,17.10
2018-11-10T06:03:26.576Z,17.30
2018-11-10T06:05:52.599Z,17.10
2018-11-10T06:08:18.636Z,17.10
2018-11-10T06:10:44.845Z,17.10
2018-11-10T06:13:10.667Z,17.20
2018-11-10T06:15:36.485Z,17.10
2018-11-10T06:18:02.303Z,17.10
2018-11-10T06:20:28.104Z,17.10
2018-11-10T06:22:53.925Z,17.10
2018-11-10T06:25:19.752Z,17.10
2018-11-10T06:27:45.567Z,17.10
2018-11-10T06:30:11.388Z,17.20
2018-11-10T06:32:37.680Z,17.10
2018-11-10T06:35:03.433Z,17.10
2018-11-10T06:37:29.666Z,17.10
2018-11-10T06:39:55.476Z,17.10
2018-11-10T06:42:21.288Z,17.10
2018-11-10T06:44:47.120Z,17.20
2018-11-10T06:47:13.410Z,17.10
2018-11-10T06:49:39.568Z,17.20
2018-11-10T06:52:05.795Z,17.20
2018-11-10T06:54:31.610Z,17.20
2018-11-10T06:56:57.439Z,17.20
2018-11-10T06:59:23.248Z,17.20
2018-11-10T07:01:49.475Z,17.20
2018-11-10T07:04:15.298Z,17.20
2018-11-10T07:06:41.119Z,17.30
2018-11-10T07:09:06.931Z,17.30
2018-11-10T07:11:32.752Z,17.30
2018-11-10T07:13:58.551Z,17.30
2018-11-10T07:16:24.384Z,17.30
2018-11-10T07:18:50.195Z,17.30
2018-11-10T07:21:16.011Z,17.30
2018-11-10T07:23:41.841Z,17.30
2018-11-10T07:26:08.076Z,17.30
2018-11-10T07:28:34.290Z,17.30
2018-11-10T07:31:00.112Z,17.30
2018-11-10T07:33:25.923Z,17.30
2018-11-10T07:35:51.747Z,17.30
2018-11-10T07:38:17.900Z,17.30
2018-11-10T07:40:43.795Z,17.30
2018-11-10T07:43:10.113Z,17.30
2018-11-10T07:45:36.243Z,17.30
2018-11-10T07:48:02.474Z,17.40
2018-11-10T07:50:28.287Z,17.40
2018-11-10T07:52:54.516Z,17.30
2018-11-10T07:55:20.339Z,17.40
2018-11-10T07:57:46.146Z,17.40
2018-11-10T08:00:11.957Z,17.30
2018-11-10T08:02:37.787Z,17.30
2018-11-10T08:05:03.657Z,17.30
2018-11-10T08:07:30.268Z,17.30
2018-11-10T08:09:56.471Z,17.30
2018-11-10T08:12:22.293Z,17.30
2018-11-10T08:14:48.098Z,17.30
2018-11-10T08:17:13.926Z,17.30
2018-11-10T08:19:39.734Z,17.30
2018-11-10T08:22:05.559Z,17.40
2018-11-10T08:24:31.381Z,17.40
2018-11-10T08:26:57.186Z,17.40
2018-11-10T08:29:23.013Z,17.40
2018-11-10T08:31:48.835Z,17.40
2018-11-10T08:34:14.649Z,17.40
2018-11-10T08:36:40.467Z,17.40
2018-11-10T08:39:06.302Z,17.40
2018-11-10T08:41:32.524Z,17.40
2018-11-10T08:43:58.315Z,17.40
2018-11-10T08:46:24.138Z,17.30
2018-11-10T08:48:49.964Z,17.30
2018-11-10T08:51:15.783Z,17.40
2018-11-10T08:53:41.598Z,17.40
2018-11-10T08:56:07.419Z,17.40
2018-11-10T08:58:33.227Z,17.40
2018-11-10T09:00:59.058Z,17.40
2018-11-10T09:03:24.875Z,17.40
2018-11-10T09:05:50.764Z,17.40
2018-11-10T09:08:16.560Z,17.40
2018-11-10T09:10:43.142Z,17.40
2018-11-10T09:13:08.991Z,17.40
2018-11-10T09:15:35.194Z,17.40
2018-11-10T09:18:01.009Z,17.40
2018-11-10T09:20:27.236Z,17.40
2018-11-10T09:22:53.057Z,17.40
2018-11-10T09:25:19.341Z,17.40
2018-11-10T09:27:45.137Z,17.40
2018-11-10T09:30:11.666Z,17.40
2018-11-10T09:32:37.564Z,17.40
2018-11-10T09:35:03.380Z,17.40
2018-11-10T09:37:29.180Z,17.40
2018-11-10T09:39:55.016Z,17.30
2018-11-10T09:42:23.827Z,17.40
2018-11-10T09:44:49.926Z,17.40
2018-11-10T09:47:15.710Z,17.40
2018-11-10T09:49:41.568Z,17.40
2018-11-10T09:52:07.794Z,17.40
2018-11-10T09:54:33.655Z,17.40
2018-11-10T09:57:00.244Z,17.40
2018-11-10T09:59:26.074Z,17.40
2018-11-10T10:01:52.417Z,17.40
2018-11-10T10:04:18.511Z,17.40
2018-11-10T10:06:44.735Z,17.40
2018-11-10T10:09:10.557Z,17.40
2018-11-10T10:11:36.788Z,17.40
2018-11-10T10:14:03.555Z,17.40
2018-11-10T10:16:29.770Z,17.40
2018-11-10T10:18:55.883Z,17.40
2018-11-10T10:21:21.684Z,17.40
2018-11-10T10:26:19.070Z,17.40
2018-11-10T10:28:44.890Z,17.40
2018-11-10T10:31:10.705Z,17.40
2018-11-10T10:33:36.516Z,17.40
2018-11-10T10:36:02.339Z,17.30
2018-11-10T10:38:28.147Z,17.30
2018-11-10T10:40:54.022Z,17.40
2018-11-10T10:43:23.485Z,17.40
2018-11-10T10:45:49.294Z,17.40
2018-11-10T10:48:15.108Z,17.30
2018-11-10T10:50:40.933Z,17.30
2018-11-10T10:53:06.745Z,17.30
2018-11-10T10:55:32.555Z,17.20
2018-11-10T10:57:58.370Z,17.20
2018-11-10T11:00:24.201Z,17.20
2018-11-10T11:02:50.070Z,17.20
2018-11-10T11:05:16.249Z,17.20
2018-11-10T11:07:42.065Z,17.20
2018-11-10T11:10:07.885Z,17.20
2018-11-10T11:12:33.695Z,17.20
2018-11-10T11:14:59.531Z,17.20
2018-11-10T11:17:26.570Z,17.20
2018-11-10T11:19:52.786Z,17.30
2018-11-10T11:22:18.608Z,17.20
2018-11-10T11:24:44.428Z,17.20
2018-11-10T11:27:10.247Z,17.20
2018-11-10T11:29:36.092Z,17.20
2018-11-10T11:32:02.539Z,17.20
2018-11-10T11:34:28.514Z,17.20
2018-11-10T11:36:54.331Z,17.20
2018-11-10T11:39:20.151Z,17.20
2018-11-10T11:41:46.048Z,17.20
2018-11-10T11:44:12.205Z,17.20
2018-11-10T11:46:38.020Z,17.20
2018-11-10T11:49:04.252Z,17.20
2018-11-10T11:51:30.070Z,17.20
2018-11-10T11:53:56.425Z,17.20
2018-11-10T11:56:22.515Z,17.30
2018-11-10T11:58:48.743Z,17.20
2018-11-10T12:01:14.566Z,17.20
2018-11-10T12:03:40.607Z,17.20
2018-11-10T12:06:06.615Z,17.20
2018-11-10T12:08:32.831Z,17.20
2018-11-10T12:10:58.658Z,17.20
2018-11-10T12:13:24.482Z,17.20
2018-11-10T12:15:50.707Z,17.30
2018-11-10T12:18:16.515Z,17.20
2018-11-10T12:20:42.378Z,17.10
2018-11-10T12:23:08.150Z,17.20
2018-11-10T12:25:34.065Z,17.30
2018-11-10T12:28:00.206Z,17.40
2018-11-10T12:30:26.020Z,17.40
2018-11-10T12:32:51.841Z,17.50
2018-11-10T12:35:17.659Z,17.70
2018-11-10T12:37:43.475Z,17.80
2018-11-10T12:40:09.705Z,17.90
2018-11-10T12:42:35.924Z,17.90
2018-11-10T12:45:01.750Z,18.10
2018-11-10T12:47:27.573Z,18.20
2018-11-10T12:49:53.795Z,18.20
2018-11-10T12:52:19.663Z,18.30
2018-11-10T12:54:45.850Z,18.40
2018-11-10T12:57:12.059Z,18.50
2018-11-10T12:59:37.886Z,18.60
2018-11-10T13:02:03.703Z,18.60
2018-11-10T13:04:29.522Z,18.70
2018-11-10T13:06:55.439Z,18.90
2018-11-10T13:09:21.572Z,18.80
2018-11-10T13:11:47.935Z,18.80
2018-11-10T13:14:14.023Z,18.90
2018-11-10T13:16:39.878Z,18.90
2018-11-10T13:19:06.072Z,18.90
2018-11-10T13:21:32.290Z,18.90
2018-11-10T13:23:58.975Z,19.00
2018-11-10T13:26:25.155Z,19.10
2018-11-10T13:28:51.177Z,19.10
2018-11-10T13:31:17.390Z,19.10
2018-11-10T13:33:43.429Z,19.20
2018-11-10T13:36:09.343Z,19.20
2018-11-10T13:38:35.274Z,19.20
2018-11-10T13:41:01.315Z,19.20
2018-11-10T13:43:27.139Z,19.30
2018-11-10T13:45:53.339Z,19.30
2018-11-10T13:48:19.151Z,19.40
2018-11-10T13:50:45.104Z,19.40
2018-11-10T13:53:10.792Z,19.40
2018-11-10T13:55:36.609Z,19.40
2018-11-10T13:58:02.486Z,19.50
2018-11-10T14:00:28.650Z,19.50
2018-11-10T14:02:54.467Z,19.40
2018-11-10T14:05:20.308Z,19.50
2018-11-10T14:07:46.521Z,19.50
2018-11-10T14:10:12.327Z,19.50
2018-11-10T14:12:38.578Z,19.50
2018-11-10T14:15:04.808Z,19.60
2018-11-10T14:17:30.603Z,19.70
2018-11-10T14:19:56.423Z,19.50
2018-11-10T14:22:22.248Z,19.70
2018-11-10T14:24:48.475Z,19.70
2018-11-10T14:27:14.699Z,19.80
2018-11-10T14:29:40.517Z,19.80
2018-11-10T14:32:06.734Z,19.80
2018-11-10T14:34:32.562Z,19.80
2018-11-10T14:36:58.379Z,19.90
2018-11-10T14:39:24.200Z,19.90
2018-11-10T14:41:50.016Z,19.90
2018-11-10T14:44:15.889Z,19.80
2018-11-10T14:46:41.656Z,19.90
2018-11-10T14:49:07.879Z,19.90
2018-11-10T14:51:33.787Z,19.90
2018-11-10T14:53:59.924Z,19.90
2018-11-10T14:56:25.746Z,19.90
2018-11-10T14:58:51.989Z,20.00
2018-11-10T15:01:17.787Z,19.90
2018-11-10T15:03:43.603Z,19.90
2018-11-10T15:06:09.834Z,20.10
2018-11-10T15:08:35.654Z,20.10
2018-11-10T15:11:01.484Z,20.00
2018-11-10T15:13:27.709Z,20.00
2018-11-10T15:15:53.914Z,20.00
2018-11-10T15:18:19.830Z,20.10
2018-11-10T15:20:45.967Z,20.10
2018-11-10T15:23:11.780Z,20.00
2018-11-10T15:25:37.609Z,20.10
2018-11-10T15:28:03.834Z,20.20
2018-11-10T15:30:29.657Z,20.20
2018-11-10T15:32:55.467Z,20.10
2018-11-10T15:35:21.280Z,20.20
2018-11-10T15:37:47.197Z,20.20
2018-11-10T15:40:13.334Z,20.30
2018-11-10T15:42:39.139Z,20.30
2018-11-10T15:45:04.969Z,20.30
2018-11-10T15:47:30.791Z,20.30
2018-11-10T15:49:56.610Z,20.40
2018-11-10T15:52:22.428Z,20.40
2018-11-10T15:54:48.246Z,20.30
2018-11-10T15:57:14.544Z,20.30
2018-11-10T15:59:40.695Z,20.40
2018-11-10T16:02:12.250Z,20.40
2018-11-10T16:04:38.059Z,20.40
2018-11-10T16:07:03.879Z,20.40
2018-11-10T16:09:29.697Z,20.50
2018-11-10T16:11:55.927Z,20.50
2018-11-10T16:14:21.748Z,20.40
2018-11-10T16:16:47.572Z,20.30
2018-11-10T16:19:13.578Z,20.40
2018-11-10T16:21:39.614Z,20.40
2018-11-10T16:24:05.429Z,20.40
2018-11-10T16:26:31.241Z,20.30
2018-11-10T16:28:57.063Z,20.50
2018-11-10T16:31:22.881Z,20.60
2018-11-10T16:33:48.700Z,20.50
2018-11-10T16:36:14.519Z,20.50
2018-11-10T16:38:40.331Z,20.60
2018-11-10T16:41:06.148Z,20.60
2018-11-10T16:43:32.375Z,20.60
2018-11-10T16:45:58.203Z,20.50
2018-11-10T16:48:24.552Z,20.50
2018-11-10T16:50:50.447Z,20.60
2018-11-10T16:53:16.509Z,20.60
2018-11-10T16:55:42.694Z,20.60
2018-11-10T16:58:08.925Z,20.50
2018-11-10T17:00:35.151Z,20.60
2018-11-10T17:03:01.371Z,20.50
2018-11-10T17:05:27.194Z,20.50
2018-11-10T17:07:53.017Z,20.40
2018-11-10T17:10:18.833Z,20.30
2018-11-10T17:12:44.648Z,20.20
2018-11-10T17:15:10.471Z,20.10
2018-11-10T17:17:36.288Z,20.00
2018-11-10T17:20:02.101Z,20.00
2018-11-10T17:22:27.963Z,19.90
2018-11-10T17:24:54.159Z,19.80
2018-11-10T17:27:20.371Z,19.80
2018-11-10T17:29:46.191Z,19.70
2018-11-10T17:32:12.361Z,19.60
2018-11-10T17:34:38.233Z,19.50
2018-11-10T17:37:04.054Z,19.40
2018-11-10T17:39:29.953Z,19.40
2018-11-10T17:41:56.528Z,19.20
2018-11-10T17:44:22.735Z,19.20
2018-11-10T17:46:48.557Z,19.20
2018-11-10T17:49:14.376Z,19.20
2018-11-10T17:51:41.003Z,19.30
2018-11-10T17:54:06.832Z,19.20
2018-11-10T17:56:32.778Z,19.10
2018-11-10T17:58:58.872Z,19.10
2018-11-10T18:01:24.759Z,19.10
2018-11-10T18:03:51.351Z,19.00
2018-11-10T18:06:17.551Z,19.00
2018-11-10T18:08:43.771Z,19.00
2018-11-10T18:11:09.588Z,19.00
2018-11-10T18:13:35.418Z,18.90
2018-11-10T18:16:01.237Z,18.90
2018-11-10T18:18:27.047Z,18.90
2018-11-10T18:20:52.877Z,18.90
2018-11-10T18:23:19.186Z,18.90
2018-11-10T18:25:45.317Z,18.90
2018-11-10T18:28:11.141Z,18.90
2018-11-10T18:30:36.971Z,18.80
2018-11-10T18:33:02.780Z,18.80
2018-11-10T18:35:28.601Z,19.00
2018-11-10T18:37:54.419Z,18.80
2018-11-10T18:40:20.228Z,18.70
2018-11-10T18:42:46.046Z,18.70
2018-11-10T18:45:11.868Z,18.80
2018-11-10T18:47:37.686Z,18.70
2018-11-10T18:50:03.495Z,18.70
2018-11-10T18:52:29.427Z,18.70
2018-11-10T18:54:55.546Z,18.60
2018-11-10T18:57:21.508Z,18.70
2018-11-10T18:59:47.603Z,18.80
2018-11-10T19:02:13.821Z,18.70
2018-11-10T19:04:39.635Z,18.60
2018-11-10T19:07:05.446Z,18.60
2018-11-10T19:09:31.270Z,18.50
2018-11-10T19:11:57.085Z,18.50
2018-11-10T19:14:22.972Z,18.60
2018-11-10T19:16:48.771Z,18.60
2018-11-10T19:19:15.306Z,18.60
2018-11-10T19:21:41.171Z,18.60
2018-11-10T19:24:06.992Z,18.60
2018-11-10T19:26:32.811Z,18.60
2018-11-10T19:28:58.643Z,18.60
2018-11-10T19:31:24.855Z,18.50
2018-11-10T19:33:50.679Z,18.50
2018-11-10T19:36:16.479Z,18.50
2018-11-10T19:38:42.308Z,18.50
2018-11-10T19:41:08.126Z,18.50
2018-11-10T19:43:33.946Z,18.40
2018-11-10T19:45:59.765Z,18.40
2018-11-10T19:48:26.010Z,18.40
2018-11-10T19:50:52.350Z,18.50
2018-11-10T19:53:18.449Z,18.50
2018-11-10T19:55:44.264Z,18.40
2018-11-10T19:58:10.482Z,18.50
2018-11-10T20:00:36.313Z,18.40
2018-11-10T20:03:02.539Z,18.40
2018-11-10T20:05:28.754Z,18.50
2018-11-10T20:07:54.575Z,18.50
2018-11-10T20:10:20.396Z,18.50
2018-11-10T20:12:46.210Z,18.50
2018-11-10T20:15:12.036Z,18.50
2018-11-10T20:17:38.302Z,18.40
2018-11-10T20:20:04.948Z,18.40
2018-11-10T20:22:31.539Z,18.50
2018-11-10T20:24:57.763Z,18.40
2018-11-10T20:27:23.580Z,18.40
2018-11-10T20:29:49.396Z,18.50
2018-11-10T20:32:15.215Z,18.40
2018-11-10T20:34:41.035Z,18.40
2018-11-10T20:37:06.844Z,18.40
2018-11-10T20:39:32.658Z,18.40
2018-11-10T20:41:58.470Z,18.40
2018-11-10T20:44:24.297Z,18.40
2018-11-10T20:46:50.106Z,18.40
2018-11-10T20:49:15.938Z,18.40
2018-11-10T20:51:41.755Z,18.40
2018-11-10T20:54:07.573Z,18.30
2018-11-10T20:56:33.802Z,18.40
2018-11-10T20:58:59.603Z,18.40
2018-11-10T21:01:25.831Z,18.40
2018-11-10T21:03:51.640Z,18.40
2018-11-10T21:06:17.883Z,18.40
2018-11-10T21:08:43.698Z,18.40
2018-11-10T21:11:09.513Z,18.40
2018-11-10T21:13:35.335Z,18.30
2018-11-10T21:16:01.150Z,18.40
2018-11-10T21:18:26.973Z,18.40
2018-11-10T21:20:52.792Z,18.40
2018-11-10T21:23:18.609Z,18.30
2018-11-10T21:25:44.418Z,18.30
2018-11-10T21:28:10.244Z,18.30
2018-11-10T21:30:36.065Z,18.30
2018-11-10T21:33:02.371Z,18.40
2018-11-10T21:35:28.685Z,18.30
2018-11-10T21:37:54.747Z,18.30
2018-11-10T21:40:20.561Z,18.30
2018-11-10T21:42:46.382Z,18.40
2018-11-10T21:45:12.676Z,18.40
2018-11-10T21:47:38.833Z,18.30
2018-11-10T21:50:04.647Z,18.40
2018-11-10T21:52:30.472Z,18.40
2018-11-10T21:54:56.301Z,18.30
2018-11-10T21:57:22.579Z,18.30
2018-11-10T21:59:48.744Z,18.30
2018-11-10T22:02:14.556Z,18.30
2018-11-10T22:04:40.383Z,18.20
2018-11-10T22:07:06.189Z,18.30
2018-11-10T22:09:32.190Z,18.30
2018-11-10T22:11:58.240Z,18.30
2018-11-10T22:14:24.467Z,18.30
2018-11-10T22:16:50.292Z,18.30
2018-11-10T22:19:16.516Z,18.30
2018-11-10T22:21:42.330Z,18.20
2018-11-10T22:24:08.557Z,18.30
2018-11-10T22:26:34.367Z,18.30
2018-11-10T22:29:00.245Z,18.30
2018-11-10T22:31:26.080Z,18.30
2018-11-10T22:33:51.883Z,18.30
2018-11-10T22:36:18.471Z,18.30
2018-11-10T22:38:44.691Z,18.30
2018-11-10T22:41:10.511Z,18.30
2018-11-10T22:43:36.742Z,18.30
2018-11-10T22:46:02.542Z,18.30
2018-11-10T22:48:28.446Z,18.30
2018-11-10T22:50:54.404Z,18.30
2018-11-10T22:53:20.411Z,18.30
2018-11-10T22:55:46.230Z,18.30
2018-11-10T22:58:12.047Z,18.30
2018-11-10T23:00:37.883Z,18.40
2018-11-10T23:03:04.106Z,18.30
2018-11-10T23:05:29.913Z,18.30
2018-11-10T23:07:55.732Z,18.30
2018-11-10T23:10:21.545Z,18.30
2018-11-10T23:12:47.362Z,18.20
2018-11-10T23:15:13.191Z,18.20
2018-11-10T23:17:39.000Z,18.20
2018-11-10T23:20:04.823Z,18.20
2018-11-10T23:22:30.637Z,18.20
2018-11-10T23:24:56.868Z,18.30
2018-11-10T23:27:22.674Z,18.30
2018-11-10T23:29:48.913Z,18.30
2018-11-10T23:32:14.727Z,18.20
2018-11-10T23:34:40.954Z,18.20
2018-11-10T23:37:06.775Z,18.20
2018-11-10T23:39:32.999Z,18.20
2018-11-10T23:41:58.810Z,18.20
2018-11-10T23:44:24.633Z,18.20
2018-11-10T23:46:50.451Z,18.20
2018-11-10T23:49:16.259Z,18.20
2018-11-10T23:51:42.089Z,18.20
2018-11-10T23:54:07.916Z,18.20
2018-11-10T23:56:33.725Z,18.20
2018-11-10T23:58:59.551Z,18.20
